Aigle Des Mers — FO4883 — position and weather

sailwx.info

Track history (hours):
 
Tides and Currents Weather Stations Pressure Air Temp Water Temp Dewpoint Dewpoint Depression Visibility Wind Speed Wind Dir Waves Ship Positions

Aigle Des Mers

Last reported at 2014-Jul-25 02:33 UTC. Time now 2014-Jul-29 14:59 UTC.
Position N 47°51' W 004°27'.

Length 16 m.

Type: Fishing. MMSI: 227318010.

Date/timePositionNaut miles runAvg speedWind from/ knotsBaromVisibWave heightAir tempDewpointWater temp
2014-Jul-25 02:33N 47°51' W 004°27'9 9.2
2014-Jul-25 01:33N 47°58' W 004°36'1 1.2
2014-Jul-25 00:32N 47°58' W 004°38'3 2.7
2014-Jul-24 23:33N 47°57' W 004°42'7 0.4
2014-Jul-24 04:33N 47°55' W 004°32'2 2.4
2014-Jul-24 03:33N 47°57' W 004°31'3 3.3
2014-Jul-24 02:33N 47°56' W 004°26'6 2.9
2014-Jul-24 00:33N 47°58' W 004°34'1 0.8
2014-Jul-23 23:16N 47°59' W 004°33'4 2.4
2014-Jul-23 21:33N 47°57' W 004°27'1 0.9
2014-Jul-23 20:33N 47°58' W 004°28'1 0.0
2014-Jul-23 03:33N 47°57' W 004°27'3 0.9
2014-Jul-23 00:33N 47°57' W 004°32'3 3.1
2014-Jul-22 23:33N 47°58' W 004°36'3 2.6
2014-Jul-22 22:31N 47°59' W 004°40'14 0.8
2014-Jul-22 05:33N 47°50' W 004°25'10 3.3
2014-Jul-22 02:33N 47°57' W 004°35'3 2.4
2014-Jul-22 01:30N 47°58' W 004°39'2 2.1
2014-Jul-22 00:33N 47°60' W 004°39'0 0.0
2014-Jul-21 23:33N 47°59' W 004°39'1 1.0
2014-Jul-21 22:22N 47°58' W 004°39'12 0.7
2014-Jul-21 05:33N 47°50' W 004°25'6 6.4
2014-Jul-21 04:33N 47°55' W 004°31'4 3.7
2014-Jul-21 03:34N 47°58' W 004°35'3 2.8
2014-Jul-21 02:33N 47°58' W 004°39'3 2.7
2014-Jul-21 01:33N 47°60' W 004°42'6 6.4
2014-Jul-21 00:33N 48°06' W 004°40'3 2.6
2014-Jul-20 23:33N 48°07' W 004°36'4 3.6
2014-Jul-20 22:34N 48°09' W 004°39'3 3.5
2014-Jul-20 21:34N 48°13' W 004°39'3 2.9
2014-Jul-20 20:33N 48°10' W 004°39'7 6.4
2014-Jul-20 19:32N 48°08' W 004°30'6 6.2
2014-Jul-20 18:33N 48°07' W 004°21'2 1.5
2014-Jul-20 17:31N 48°06' W 004°19'  
2014-Jul-18 04:33N 48°06' W 004°19'0 0.2
2014-Jul-18 03:33N 48°06' W 004°19'4 3.8
2014-Jul-18 02:33N 48°07' W 004°25'8 8.4
2014-Jul-18 01:33N 48°06' W 004°37'1 0.6
2014-Jul-18 00:33N 48°05' W 004°37'1 1.1
2014-Jul-17 23:33N 48°06' W 004°36'6 5.7
2014-Jul-17 22:34N 48°10' W 004°42'5 4.7
2014-Jul-17 21:34N 48°14' W 004°46'2 2.0
2014-Jul-17 20:34N 48°12' W 004°46'2 2.2
2014-Jul-17 19:33N 48°14' W 004°48'8 8.3
2014-Jul-17 18:34N 48°10' W 004°37'9 8.8
2014-Jul-17 17:33N 48°08' W 004°24'4 0.3
2014-Jul-17 06:33N 48°06' W 004°19'0 0.0
2014-Jul-17 05:33N 48°06' W 004°19'0 0.0
2014-Jul-17 04:33N 48°06' W 004°19'7 7.1
2014-Jul-17 03:33N 48°08' W 004°30'8 7.9
2014-Jul-17 02:33N 48°11' W 004°40'9 8.5
2014-Jul-17 01:33N 48°16' W 004°51'1 1.1
2014-Jul-17 00:33N 48°17' W 004°51'1 1.0
2014-Jul-16 23:34N 48°16' W 004°52'2 2.4
2014-Jul-16 22:33N 48°16' W 004°49'5 4.8
2014-Jul-16 21:34N 48°11' W 004°46'4 4.0
2014-Jul-16 20:33N 48°07' W 004°46'14 0.8
2014-Jul-16 03:33N 47°57' W 004°32'0 0.2
2014-Jul-16 01:33N 47°57' W 004°32'0 0.3
2014-Jul-16 00:33N 47°57' W 004°32'1 1.2
2014-Jul-15 23:33N 47°56' W 004°32'0 0.1
2014-Jul-15 22:33N 47°56' W 004°32'3 0.2
2014-Jul-15 05:33N 47°53' W 004°29'4 4.3
2014-Jul-15 04:33N 47°56' W 004°34'0 0.2
2014-Jul-15 03:33N 47°56' W 004°34'  
Track history (hours):
 
Tides and Currents Weather Stations Pressure Air Temp Water Temp Dewpoint Dewpoint Depression Visibility Wind Speed Wind Dir Waves Ship Positions

Aigle Des Mers

Last reported at 2014-Jul-25 02:33 UTC. Time now 2014-Jul-29 14:59 UTC.
Position N 47°51' W 004°27'.

Length 16 m.

Type: Fishing. MMSI: 227318010.

Date/timePositionNaut miles runAvg speedWind from/ knotsBaromVisibWave heightAir tempDewpointWater temp
2014-Jul-25 02:33N 47°51' W 004°27'9 9.2
2014-Jul-25 01:33N 47°58' W 004°36'1 1.2
2014-Jul-25 00:32N 47°58' W 004°38'3 2.7
2014-Jul-24 23:33N 47°57' W 004°42'7 0.4
2014-Jul-24 04:33N 47°55' W 004°32'2 2.4
2014-Jul-24 03:33N 47°57' W 004°31'3 3.3
2014-Jul-24 02:33N 47°56' W 004°26'6 2.9
2014-Jul-24 00:33N 47°58' W 004°34'1 0.8
2014-Jul-23 23:16N 47°59' W 004°33'4 2.4
2014-Jul-23 21:33N 47°57' W 004°27'1 0.9
2014-Jul-23 20:33N 47°58' W 004°28'1 0.0
2014-Jul-23 03:33N 47°57' W 004°27'3 0.9
2014-Jul-23 00:33N 47°57' W 004°32'3 3.1
2014-Jul-22 23:33N 47°58' W 004°36'3 2.6
2014-Jul-22 22:31N 47°59' W 004°40'14 0.8
2014-Jul-22 05:33N 47°50' W 004°25'10 3.3
2014-Jul-22 02:33N 47°57' W 004°35'3 2.4
2014-Jul-22 01:30N 47°58' W 004°39'2 2.1
2014-Jul-22 00:33N 47°60' W 004°39'0 0.0
2014-Jul-21 23:33N 47°59' W 004°39'1 1.0
2014-Jul-21 22:22N 47°58' W 004°39'12 0.7
2014-Jul-21 05:33N 47°50' W 004°25'6 6.4
2014-Jul-21 04:33N 47°55' W 004°31'4 3.7
2014-Jul-21 03:34N 47°58' W 004°35'3 2.8
2014-Jul-21 02:33N 47°58' W 004°39'3 2.7
2014-Jul-21 01:33N 47°60' W 004°42'6 6.4
2014-Jul-21 00:33N 48°06' W 004°40'3 2.6
2014-Jul-20 23:33N 48°07' W 004°36'4 3.6
2014-Jul-20 22:34N 48°09' W 004°39'3 3.5
2014-Jul-20 21:34N 48°13' W 004°39'3 2.9
2014-Jul-20 20:33N 48°10' W 004°39'7 6.4
2014-Jul-20 19:32N 48°08' W 004°30'6 6.2
2014-Jul-20 18:33N 48°07' W 004°21'2 1.5
2014-Jul-20 17:31N 48°06' W 004°19'  
2014-Jul-18 04:33N 48°06' W 004°19'0 0.2
2014-Jul-18 03:33N 48°06' W 004°19'4 3.8
2014-Jul-18 02:33N 48°07' W 004°25'8 8.4
2014-Jul-18 01:33N 48°06' W 004°37'1 0.6
2014-Jul-18 00:33N 48°05' W 004°37'1 1.1
2014-Jul-17 23:33N 48°06' W 004°36'6 5.7
2014-Jul-17 22:34N 48°10' W 004°42'5 4.7
2014-Jul-17 21:34N 48°14' W 004°46'2 2.0
2014-Jul-17 20:34N 48°12' W 004°46'2 2.2
2014-Jul-17 19:33N 48°14' W 004°48'8 8.3
2014-Jul-17 18:34N 48°10' W 004°37'9 8.8
2014-Jul-17 17:33N 48°08' W 004°24'4 0.3
2014-Jul-17 06:33N 48°06' W 004°19'0 0.0
2014-Jul-17 05:33N 48°06' W 004°19'0 0.0
2014-Jul-17 04:33N 48°06' W 004°19'7 7.1
2014-Jul-17 03:33N 48°08' W 004°30'8 7.9
2014-Jul-17 02:33N 48°11' W 004°40'9 8.5
2014-Jul-17 01:33N 48°16' W 004°51'1 1.1
2014-Jul-17 00:33N 48°17' W 004°51'1 1.0
2014-Jul-16 23:34N 48°16' W 004°52'2 2.4
2014-Jul-16 22:33N 48°16' W 004°49'5 4.8
2014-Jul-16 21:34N 48°11' W 004°46'4 4.0
2014-Jul-16 20:33N 48°07' W 004°46'14 0.8
2014-Jul-16 03:33N 47°57' W 004°32'0 0.2
2014-Jul-16 01:33N 47°57' W 004°32'0 0.3
2014-Jul-16 00:33N 47°57' W 004°32'1 1.2
2014-Jul-15 23:33N 47°56' W 004°32'0 0.1
2014-Jul-15 22:33N 47°56' W 004°32'3 0.2
2014-Jul-15 05:33N 47°53' W 004°29'4 4.3
2014-Jul-15 04:33N 47°56' W 004°34'0 0.2
2014-Jul-15 03:33N 47°56' W 004°34'  

Dump ship's entire track history